createdAt,value
2019-01-25T04:08:51.761Z,18.33
2019-01-25T04:11:33.089Z,18.83
2019-01-25T04:14:14.307Z,19.07
2019-01-25T04:16:55.795Z,18.93
2019-01-25T04:19:37.204Z,18.73
2019-01-25T04:22:18.705Z,17.83
2019-01-25T04:24:58.649Z,19.03
2019-01-25T04:27:47.174Z,19.07
2019-01-25T04:30:28.117Z,17.90
2019-01-25T04:33:09.500Z,18.60
2019-01-25T04:35:50.538Z,18.63
2019-01-25T04:38:31.569Z,18.57
2019-01-25T04:41:13.106Z,18.40
2019-01-25T04:43:54.611Z,19.37
2019-01-25T04:46:35.449Z,19.67
2019-01-25T04:49:16.073Z,19.33
2019-01-25T04:51:57.552Z,19.90
2019-01-25T04:54:38.913Z,20.67
2019-01-25T05:06:15.999Z,21.67
2019-01-25T05:08:57.290Z,21.70
2019-01-25T05:11:36.724Z,20.67
2019-01-25T05:14:25.184Z,21.13
2019-01-25T05:17:05.035Z,22.00
2019-01-25T05:19:53.604Z,21.43
2019-01-25T05:22:34.896Z,20.43
2019-01-25T05:25:15.891Z,21.23
2019-01-25T05:27:57.040Z,22.00
2019-01-25T05:30:38.653Z,21.93
2019-01-25T05:33:19.481Z,20.43
2019-01-25T05:36:00.720Z,20.90
2019-01-25T05:38:43.956Z,21.80
2019-01-25T05:41:32.451Z,22.83
2019-01-25T05:44:13.903Z,21.03
2019-01-25T05:46:54.614Z,21.13
2019-01-25T05:49:35.610Z,21.07
2019-01-25T05:52:16.937Z,22.73
2019-01-25T05:54:57.673Z,23.10
2019-01-25T05:57:38.644Z,23.47
2019-01-25T06:03:14.619Z,24.77
2019-01-25T06:05:57.891Z,25.20
2019-01-25T06:08:43.851Z,25.27
2019-01-25T06:11:21.333Z,23.67
2019-01-25T06:14:02.794Z,25.90
2019-01-25T06:16:44.309Z,24.27
2019-01-25T06:19:25.360Z,25.80
2019-01-25T06:22:06.473Z,25.13
2019-01-25T06:24:47.880Z,25.63
2019-01-25T06:27:28.602Z,26.40
2019-01-25T06:30:10.520Z,27.20
2019-01-25T06:32:51.550Z,25.97
2019-01-25T06:35:32.890Z,27.17
2019-01-25T06:38:14.333Z,28.00
2019-01-25T06:40:55.296Z,28.00
2019-01-25T06:43:36.621Z,27.43
2019-01-25T06:46:17.967Z,27.60
2019-01-25T06:48:59.069Z,28.13
2019-01-25T06:51:40.205Z,24.13
2019-01-25T06:54:21.341Z,28.40
2019-01-25T06:57:02.583Z,26.87
2019-01-25T06:59:51.065Z,26.67
2019-01-25T07:02:35.915Z,24.47
2019-01-25T07:05:16.427Z,25.00
2019-01-25T07:07:57.113Z,25.90
2019-01-25T07:10:38.607Z,27.03
2019-01-25T07:13:19.916Z,24.60
2019-01-25T07:16:00.461Z,23.17
2019-01-25T07:18:41.512Z,22.67
2019-01-25T07:21:22.876Z,22.17
2019-01-25T07:24:03.816Z,21.00
2019-01-25T07:26:44.507Z,21.33
2019-01-25T07:29:25.936Z,20.97
2019-01-25T07:32:07.265Z,20.83
2019-01-25T07:34:48.301Z,18.33
2019-01-25T07:37:27.919Z,21.40
2019-01-25T07:40:09.386Z,17.77
2019-01-25T07:42:50.847Z,18.57
2019-01-25T07:45:31.930Z,19.80
2019-01-25T07:48:13.272Z,19.73
2019-01-25T07:50:53.931Z,19.67
2019-01-25T07:53:35.693Z,19.50
2019-01-25T07:56:16.468Z,20.10
2019-01-25T07:58:57.155Z,20.20
2019-01-25T08:01:38.733Z,15.70
2019-01-25T08:04:20.028Z,19.40
2019-01-25T08:07:01.069Z,19.63
2019-01-25T08:09:41.690Z,19.67
2019-01-25T08:12:22.370Z,19.67
2019-01-25T08:15:03.585Z,15.60
2019-01-25T08:17:44.818Z,19.80
2019-01-25T08:20:25.440Z,18.53
2019-01-25T08:23:06.850Z,17.77
2019-01-25T08:25:48.520Z,19.40
2019-01-25T08:28:29.277Z,17.73
2019-01-25T08:31:10.752Z,19.73
2019-01-25T08:33:50.985Z,18.57
2019-01-25T08:39:40.124Z,17.43
2019-01-25T08:42:21.568Z,18.83
2019-01-25T08:45:03.078Z,18.10
2019-01-25T08:47:44.285Z,18.17
2019-01-25T08:50:25.416Z,17.90
2019-01-25T08:53:06.776Z,19.60
2019-01-25T08:55:48.136Z,18.73
2019-01-25T08:58:29.396Z,19.53
2019-01-25T09:01:10.519Z,19.93
2019-01-25T09:03:50.640Z,17.13
2019-01-25T09:06:29.084Z,15.77
2019-01-25T09:09:09.144Z,18.13
2019-01-25T09:11:49.429Z,17.60
2019-01-25T09:14:29.660Z,16.80
2019-01-25T09:17:08.178Z,15.80
2019-01-25T09:19:49.295Z,17.43
2019-01-25T09:22:30.441Z,15.50
2019-01-25T09:25:11.414Z,17.43
2019-01-25T09:27:52.275Z,14.73
2019-01-25T09:30:33.654Z,16.97
2019-01-25T10:23:53.920Z,18.37
2019-01-25T10:26:34.344Z,16.80
2019-01-25T10:29:15.536Z,17.40
2019-01-25T10:31:54.958Z,18.20
2019-01-25T10:34:36.372Z,16.50
2019-01-25T10:37:14.915Z,17.73
2019-01-25T11:09:41.984Z,17.67
2019-01-25T11:12:22.150Z,18.43
2019-01-25T11:15:02.316Z,17.20
2019-01-25T11:17:42.454Z,17.87
2019-01-25T11:20:20.987Z,18.20
2019-01-25T11:23:01.064Z,17.40
2019-01-25T11:25:39.408Z,17.33
2019-01-25T11:28:17.834Z,17.03
2019-01-25T16:04:45.034Z,20.80
2019-01-25T16:07:26.154Z,21.60
2019-01-25T16:10:07.150Z,21.40
2019-01-25T16:12:48.542Z,21.60
2019-01-25T16:15:29.257Z,21.77
2019-01-25T16:18:10.760Z,22.53
2019-01-25T16:20:51.634Z,23.57
2019-01-25T16:23:31.761Z,25.33
2019-01-25T16:26:12.959Z,23.10
2019-01-25T16:28:52.475Z,24.37
2019-01-25T16:31:33.365Z,22.63
2019-01-25T16:34:14.198Z,22.10
2019-01-25T16:36:55.640Z,20.83
2019-01-25T16:39:37.065Z,20.60
2019-01-25T16:42:17.950Z,21.47
2019-01-25T16:44:59.025Z,23.30
2019-01-25T16:47:40.299Z,19.07
2019-01-25T16:50:23.751Z,20.90
2019-01-25T16:53:03.284Z,18.73
2019-01-25T16:55:44.685Z,21.73
2019-01-25T16:58:26.094Z,21.57
2019-01-25T17:01:07.598Z,23.13
2019-01-25T17:03:48.419Z,21.53
2019-01-25T17:06:29.660Z,22.17
2019-01-25T17:09:10.302Z,23.07
2019-01-25T17:11:51.879Z,22.53
2019-01-25T17:14:33.588Z,18.33
2019-01-25T17:17:14.440Z,24.23
2019-01-25T17:19:55.174Z,23.23
2019-01-25T17:22:36.598Z,16.40
2019-01-25T17:25:17.268Z,23.17
2019-01-25T17:27:58.756Z,21.63
2019-01-25T17:30:40.157Z,20.90
2019-01-25T17:33:20.940Z,22.23
2019-01-25T17:36:02.001Z,24.03
2019-01-25T17:38:43.371Z,23.77
2019-01-25T17:41:24.670Z,25.23
2019-01-25T17:44:04.695Z,23.03
2019-01-25T17:46:45.497Z,23.87
2019-01-25T17:49:26.791Z,26.87
2019-01-25T17:52:07.604Z,18.93
2019-01-25T17:54:49.179Z,23.77
2019-01-25T17:57:30.410Z,23.43
2019-01-25T18:00:12.220Z,23.63
2019-01-25T18:02:52.991Z,25.00
2019-01-25T18:05:34.783Z,24.70
2019-01-25T18:08:15.801Z,24.17
2019-01-25T18:10:57.239Z,24.60
2019-01-25T18:13:38.736Z,24.03
2019-01-25T18:16:19.996Z,25.23
2019-01-25T19:15:31.581Z,25.50
2019-01-25T19:18:12.881Z,25.87
2019-01-25T19:20:53.894Z,24.90
2019-01-25T19:23:35.355Z,25.83
2019-01-25T19:26:16.628Z,26.37
2019-01-25T19:28:58.030Z,25.27
2019-01-25T19:31:39.116Z,26.67
2019-01-25T19:34:20.590Z,24.90
2019-01-25T19:37:02.806Z,27.87
2019-01-25T19:39:43.977Z,27.80
2019-01-25T19:42:25.098Z,27.23
2019-01-25T19:45:11.819Z,28.77
2019-01-25T19:47:49.543Z,27.50
2019-01-25T19:50:31.146Z,26.00
2019-01-25T19:53:12.438Z,25.50
2019-01-25T19:55:53.869Z,27.03
2019-01-25T19:58:34.446Z,26.53
2019-01-25T20:01:16.026Z,25.93
2019-01-25T20:03:57.472Z,26.47
2019-01-25T20:06:38.664Z,28.30
2019-01-25T20:09:20.170Z,26.07
2019-01-25T20:12:01.736Z,25.03
2019-01-25T20:14:42.743Z,25.07
2019-01-25T20:17:22.835Z,23.47
2019-01-25T20:20:03.741Z,26.17
2019-01-25T20:22:45.046Z,26.43
2019-01-25T20:25:26.428Z,26.57
2019-01-25T20:28:06.486Z,24.60
2019-01-25T20:30:49.749Z,25.97
2019-01-25T20:33:30.443Z,25.43
2019-01-25T20:36:11.879Z,26.90
2019-01-25T20:38:53.353Z,25.60
2019-01-25T20:41:34.332Z,23.83
2019-01-25T20:44:15.160Z,25.17
2019-01-25T20:46:56.075Z,24.90
2019-01-25T20:49:37.331Z,23.37
2019-01-25T20:52:17.937Z,25.60
2019-01-25T20:54:59.231Z,25.17
2019-01-25T20:57:39.865Z,25.77
2019-01-25T21:00:20.663Z,24.17
2019-01-25T21:03:01.911Z,25.07
2019-01-25T21:05:43.293Z,24.90
2019-01-25T21:08:24.237Z,23.67
2019-01-25T21:11:05.407Z,25.03
2019-01-25T21:13:46.130Z,24.27
2019-01-25T21:16:26.876Z,23.43
2019-01-25T21:19:07.618Z,22.63
2019-01-25T21:21:48.252Z,23.30
2019-01-25T21:24:29.755Z,24.43
2019-01-25T21:27:10.483Z,20.33
2019-01-25T21:29:51.980Z,24.40
2019-01-25T21:32:33.387Z,25.67
2019-01-25T21:35:14.118Z,23.57
2019-01-25T21:37:55.468Z,21.77
2019-01-25T21:40:36.711Z,23.40
2019-01-25T21:43:17.483Z,22.80
2019-01-25T21:45:58.210Z,23.87
2019-01-25T21:48:38.957Z,23.07
2019-01-25T21:51:18.893Z,23.93
2019-01-25T21:54:07.396Z,23.30
2019-01-25T21:56:48.700Z,21.43
2019-01-25T21:59:30.187Z,22.37
2019-01-25T22:02:11.005Z,21.83
2019-01-25T22:04:51.499Z,24.20
2019-01-25T22:07:30.990Z,24.97
2019-01-25T22:10:20.659Z,25.60
2019-01-25T22:13:01.192Z,25.97
2019-01-25T22:15:40.686Z,27.83
2019-01-25T22:18:21.398Z,26.97
2019-01-25T22:21:02.580Z,29.90
2019-01-25T22:23:43.901Z,29.50
2019-01-25T22:26:25.138Z,30.70
2019-01-25T22:29:04.764Z,30.97
2019-01-25T22:34:59.350Z,28.67
2019-01-25T22:37:40.355Z,30.33
2019-01-25T22:40:20.999Z,30.23
2019-01-25T22:43:00.573Z,30.93
2019-01-25T22:45:42.137Z,30.87
2019-01-25T22:48:23.531Z,30.63
2019-01-25T22:51:04.795Z,31.23
2019-01-25T22:53:45.523Z,31.27
2019-01-25T22:56:26.060Z,31.33
2019-01-25T22:59:07.355Z,31.20
2019-01-25T23:01:48.410Z,31.67
2019-01-25T23:04:49.180Z,31.80
2019-01-25T23:07:30.719Z,31.90
2019-01-25T23:10:11.854Z,33.97
2019-01-25T23:12:53.165Z,33.30
2019-01-25T23:15:34.405Z,32.53
2019-01-25T23:18:15.423Z,33.17
2019-01-25T23:20:56.751Z,35.07
2019-01-25T23:23:37.780Z,34.53
2019-01-25T23:26:18.582Z,36.63
2019-01-25T23:29:00.140Z,38.27
2019-01-25T23:31:40.783Z,37.67
2019-01-25T23:34:22.274Z,37.97
2019-01-25T23:37:03.609Z,40.00
2019-01-25T23:39:44.647Z,38.80
2019-01-25T23:42:24.041Z,37.87
2019-01-25T23:45:05.314Z,37.70
2019-01-25T23:47:46.193Z,37.40
2019-01-25T23:50:27.213Z,39.37
2019-01-25T23:53:07.903Z,40.67
2019-01-25T23:55:49.294Z,42.63
2019-01-25T23:58:30.706Z,41.13
